createdAt,value
2019-03-27T00:00:31.467Z,68.59
2019-03-27T00:01:31.471Z,69.83
2019-03-27T00:02:31.451Z,69.83
2019-03-27T00:03:31.459Z,70.14
2019-03-27T00:04:31.438Z,70.17
2019-03-27T00:05:31.505Z,70.58
2019-03-27T00:06:31.395Z,70.58
2019-03-27T00:07:31.391Z,70.58
2019-03-27T00:08:31.397Z,70.37
2019-03-27T00:09:31.397Z,70.79
2019-03-27T00:10:31.359Z,70.07
2019-03-27T00:11:31.394Z,69.76
2019-03-27T00:12:31.349Z,70.28
2019-03-27T00:13:31.352Z,70.37
2019-03-27T00:14:31.336Z,70.41
2019-03-27T00:15:31.301Z,70.31
2019-03-27T00:16:31.316Z,70.31
2019-03-27T00:17:31.283Z,71.23
2019-03-27T00:18:31.267Z,71.26
2019-03-27T00:19:31.287Z,71.23
2019-03-27T00:20:31.276Z,71.68
2019-03-27T00:21:31.253Z,71.47
2019-03-27T00:22:31.250Z,71.58
2019-03-27T00:23:31.218Z,71.51
2019-03-27T00:24:31.247Z,71.47
2019-03-27T00:25:31.198Z,72.19
2019-03-27T00:26:31.213Z,71.99
2019-03-27T00:27:31.177Z,72.09
2019-03-27T00:28:31.184Z,71.78
2019-03-27T00:29:31.202Z,72.19
2019-03-27T00:30:31.153Z,72.40
2019-03-27T00:31:31.140Z,71.81
2019-03-27T00:32:31.115Z,72.44
2019-03-27T00:33:31.139Z,72.64
2019-03-27T00:34:31.110Z,72.40
2019-03-27T00:35:31.104Z,72.64
2019-03-27T00:36:31.114Z,72.13
2019-03-27T00:37:31.066Z,72.13
2019-03-27T00:38:31.051Z,72.02
2019-03-27T00:39:31.057Z,72.13
2019-03-27T00:40:31.088Z,73.16
2019-03-27T00:41:31.014Z,72.95
2019-03-27T00:42:31.069Z,72.54
2019-03-27T00:43:31.042Z,72.64
2019-03-27T00:44:30.987Z,73.05
2019-03-27T00:45:30.992Z,72.47
2019-03-27T00:46:30.985Z,72.16
2019-03-27T00:47:30.954Z,72.88
2019-03-27T00:48:30.952Z,73.09
2019-03-27T00:49:30.929Z,73.09
2019-03-27T00:50:30.951Z,72.78
2019-03-27T00:51:30.916Z,72.81
2019-03-27T00:52:30.901Z,72.50
2019-03-27T00:53:30.921Z,72.91
2019-03-27T00:54:30.882Z,73.02
2019-03-27T00:55:30.935Z,73.22
2019-03-27T00:56:30.859Z,73.54
2019-03-27T00:57:30.843Z,73.64
2019-03-27T00:58:30.830Z,73.85
2019-03-27T00:59:30.824Z,73.77
2019-03-27T01:00:30.906Z,73.36
2019-03-27T01:01:30.806Z,73.98
2019-03-27T01:02:30.792Z,74.15
2019-03-27T01:03:30.784Z,74.08
2019-03-27T01:04:30.771Z,74.19
2019-03-27T01:05:30.753Z,73.77
2019-03-27T01:06:30.762Z,73.77
2019-03-27T01:07:30.798Z,74.12
2019-03-27T01:08:30.720Z,74.81
2019-03-27T01:09:30.709Z,74.60
2019-03-27T01:10:30.712Z,74.95
2019-03-27T01:11:30.716Z,74.74
2019-03-27T01:12:30.687Z,74.22
2019-03-27T01:13:30.663Z,75.15
2019-03-27T01:14:30.664Z,75.19
2019-03-27T01:15:39.642Z,75.40
2019-03-27T01:16:31.655Z,74.98
2019-03-27T01:17:30.620Z,75.81
2019-03-27T01:18:30.603Z,76.32
2019-03-27T01:19:30.602Z,76.67
2019-03-27T01:20:30.587Z,76.57
2019-03-27T01:21:30.633Z,76.57
2019-03-27T01:22:30.564Z,76.67
2019-03-27T01:23:30.560Z,76.46
2019-03-27T01:24:30.556Z,76.98
2019-03-27T01:25:30.528Z,77.09
2019-03-27T01:26:30.564Z,76.26
2019-03-27T01:27:30.522Z,76.98
2019-03-27T01:28:30.496Z,76.98
2019-03-27T01:29:30.502Z,77.91
2019-03-27T01:30:30.478Z,76.15
2019-03-27T01:31:30.504Z,76.88
2019-03-27T01:32:30.460Z,77.19
2019-03-27T01:33:30.451Z,76.67
2019-03-27T01:34:30.445Z,77.60
2019-03-27T01:35:30.442Z,76.98
2019-03-27T01:36:30.410Z,77.19
2019-03-27T01:37:30.420Z,77.29
2019-03-27T01:38:30.390Z,77.95
2019-03-27T01:39:30.395Z,77.64
2019-03-27T01:40:30.371Z,76.50
2019-03-27T01:41:30.363Z,77.01
2019-03-27T01:42:30.361Z,77.33
2019-03-27T01:43:30.339Z,76.91
2019-03-27T01:44:30.317Z,76.81
2019-03-27T01:45:30.317Z,77.22
2019-03-27T01:46:30.295Z,77.12
2019-03-27T01:47:30.299Z,77.01
2019-03-27T01:48:30.273Z,76.81
2019-03-27T01:49:30.273Z,78.05
2019-03-27T01:50:30.258Z,77.36
2019-03-27T01:51:30.236Z,77.47
2019-03-27T01:52:30.245Z,77.57
2019-03-27T01:53:30.215Z,77.26
2019-03-27T01:54:30.217Z,77.98
2019-03-27T01:55:30.206Z,77.57
2019-03-27T01:56:30.187Z,77.47
2019-03-27T01:57:30.188Z,77.78
2019-03-27T01:58:30.189Z,77.57
2019-03-27T01:59:30.191Z,78.33
2019-03-27T02:00:30.141Z,77.71
2019-03-27T02:01:30.134Z,77.81
2019-03-27T02:02:30.207Z,78.54
2019-03-27T02:03:30.106Z,78.12
2019-03-27T02:04:30.146Z,78.33
2019-03-27T02:05:30.094Z,78.75
2019-03-27T02:06:30.088Z,79.27
2019-03-27T02:07:30.091Z,78.85
2019-03-27T02:08:30.045Z,78.78
2019-03-27T02:09:30.045Z,78.37
2019-03-27T02:10:30.030Z,78.89
2019-03-27T02:11:30.014Z,79.30
2019-03-27T02:12:30.056Z,78.89
2019-03-27T02:13:30.006Z,78.89
2019-03-27T02:14:30.002Z,79.30
2019-03-27T02:15:29.972Z,79.10
2019-03-27T02:16:29.958Z,78.78
2019-03-27T02:17:30.004Z,79.34
2019-03-27T02:18:29.958Z,78.72
2019-03-27T02:19:29.941Z,78.92
2019-03-27T02:20:29.931Z,79.44
2019-03-27T02:21:29.912Z,79.85
2019-03-27T02:22:29.904Z,79.65
2019-03-27T02:23:29.906Z,79.24
2019-03-27T02:24:29.884Z,79.13
2019-03-27T02:25:29.867Z,79.17
2019-03-27T02:26:29.868Z,80.31
2019-03-27T02:27:29.853Z,80.00
2019-03-27T02:28:29.855Z,80.31
2019-03-27T02:29:29.818Z,80.31
2019-03-27T02:30:29.838Z,80.00
2019-03-27T02:31:29.805Z,79.69
2019-03-27T02:32:29.796Z,79.58
2019-03-27T02:33:29.796Z,79.69
2019-03-27T02:34:29.807Z,79.79
2019-03-27T02:35:29.758Z,80.24
2019-03-27T02:36:29.751Z,80.31
2019-03-27T02:37:29.737Z,80.55
2019-03-27T02:38:29.767Z,80.41
2019-03-27T02:39:29.716Z,80.66
2019-03-27T02:40:29.711Z,80.73
2019-03-27T02:41:29.697Z,80.76
2019-03-27T02:42:29.682Z,81.18
2019-03-27T02:43:29.739Z,80.97
2019-03-27T02:44:29.673Z,80.87
2019-03-27T02:45:29.663Z,80.97
2019-03-27T02:46:29.659Z,80.55
2019-03-27T02:47:29.638Z,80.87
2019-03-27T02:48:29.655Z,81.28
2019-03-27T02:49:29.624Z,81.63
2019-03-27T02:50:29.597Z,81.94
2019-03-27T02:51:29.593Z,81.73
2019-03-27T02:52:29.572Z,81.52
2019-03-27T02:53:29.565Z,81.32
2019-03-27T02:54:29.575Z,81.11
2019-03-27T02:55:29.547Z,81.32
2019-03-27T02:56:29.536Z,81.21
2019-03-27T02:57:29.520Z,81.15
2019-03-27T02:58:29.545Z,81.21
2019-03-27T02:59:29.542Z,81.01
2019-03-27T03:00:29.488Z,81.77
2019-03-27T03:01:29.473Z,81.87
2019-03-27T03:02:29.485Z,81.46
2019-03-27T03:03:29.470Z,82.22
2019-03-27T03:04:29.470Z,81.77
2019-03-27T03:05:29.453Z,82.01
2019-03-27T03:06:29.422Z,82.12
2019-03-27T03:07:29.416Z,82.53
2019-03-27T03:08:29.408Z,82.32
2019-03-27T03:09:29.465Z,82.32
2019-03-27T03:10:29.382Z,82.84
2019-03-27T03:11:29.370Z,82.64
2019-03-27T03:12:29.364Z,82.84
2019-03-27T03:13:29.381Z,83.05
2019-03-27T03:14:29.360Z,82.95
2019-03-27T03:15:29.355Z,82.99
2019-03-27T03:16:42.384Z,82.57
2019-03-27T03:17:30.304Z,83.05
2019-03-27T03:18:29.342Z,82.46
2019-03-27T03:19:29.288Z,82.57
2019-03-27T03:20:29.290Z,82.84
2019-03-27T03:21:29.266Z,82.95
2019-03-27T03:22:29.249Z,82.78
2019-03-27T03:23:29.243Z,82.68
2019-03-27T03:24:29.260Z,82.68
2019-03-27T03:25:29.312Z,82.46
2019-03-27T03:26:29.210Z,82.74
2019-03-27T03:27:29.193Z,82.78
2019-03-27T03:28:29.180Z,82.78
2019-03-27T03:29:29.200Z,83.09
2019-03-27T03:30:29.249Z,83.09
2019-03-27T03:31:29.151Z,82.89
2019-03-27T03:32:29.142Z,82.99
2019-03-27T03:33:29.145Z,82.57
2019-03-27T03:34:29.138Z,82.46
2019-03-27T03:35:29.144Z,82.89
2019-03-27T03:36:29.108Z,83.09
2019-03-27T03:37:29.085Z,82.78
2019-03-27T03:38:29.066Z,82.78
2019-03-27T03:39:29.057Z,82.57
2019-03-27T03:40:29.053Z,82.36
2019-03-27T03:41:29.070Z,82.61
2019-03-27T03:42:29.031Z,82.92
2019-03-27T03:43:29.035Z,82.82
2019-03-27T03:44:29.014Z,82.61
2019-03-27T03:45:28.999Z,83.03
2019-03-27T03:46:29.015Z,82.92
2019-03-27T03:47:29.001Z,83.23
2019-03-27T03:48:28.968Z,83.03
2019-03-27T03:49:28.962Z,83.03
2019-03-27T03:50:28.945Z,82.71
2019-03-27T03:51:28.952Z,82.92
2019-03-27T03:52:28.933Z,83.54
2019-03-27T03:53:28.906Z,83.03
2019-03-27T03:54:28.905Z,82.92
2019-03-27T03:55:28.885Z,83.13
2019-03-27T03:56:28.891Z,83.13
2019-03-27T03:57:28.898Z,83.44
2019-03-27T03:58:28.854Z,83.65
2019-03-27T03:59:28.857Z,83.34
2019-03-27T04:00:28.836Z,82.92
2019-03-27T04:01:28.817Z,83.44
2019-03-27T04:02:28.841Z,84.38
2019-03-27T04:03:28.795Z,84.90
2019-03-27T04:04:28.829Z,84.59
2019-03-27T04:05:28.769Z,84.17
2019-03-27T04:06:28.784Z,83.75
2019-03-27T04:07:28.770Z,84.11
2019-03-27T04:08:28.737Z,85.00
2019-03-27T04:09:28.748Z,85.04
2019-03-27T04:10:28.723Z,84.73
2019-03-27T04:11:28.779Z,85.00
2019-03-27T04:12:28.736Z,85.00
2019-03-27T04:13:28.692Z,84.73
2019-03-27T04:14:28.685Z,84.80
2019-03-27T04:15:28.667Z,84.17
2019-03-27T04:16:28.652Z,84.17
2019-03-27T04:17:28.655Z,83.80
2019-03-27T04:18:28.634Z,84.52
2019-03-27T04:19:28.619Z,84.52
2019-03-27T04:20:28.609Z,84.38
2019-03-27T04:21:28.605Z,84.94
2019-03-27T04:22:28.604Z,84.63
2019-03-27T04:23:28.582Z,84.94
2019-03-27T04:24:28.566Z,84.42
2019-03-27T04:25:28.578Z,84.11
2019-03-27T04:26:28.552Z,84.00
2019-03-27T04:27:28.563Z,84.42
2019-03-27T04:28:28.543Z,84.73
2019-03-27T04:29:28.535Z,84.56
2019-03-27T04:30:28.509Z,85.29
2019-03-27T04:31:28.493Z,85.19
2019-03-27T04:32:28.517Z,85.08
2019-03-27T04:33:28.488Z,85.19
2019-03-27T04:34:28.465Z,84.87
2019-03-27T04:35:28.454Z,85.29
2019-03-27T04:36:28.441Z,85.39
2019-03-27T04:37:28.499Z,84.98
2019-03-27T04:38:28.426Z,85.91
2019-03-27T04:39:28.404Z,85.91
2019-03-27T04:40:28.404Z,84.98
2019-03-27T04:41:28.392Z,85.19
2019-03-27T04:42:28.403Z,84.77
2019-03-27T04:43:28.356Z,84.66
2019-03-27T04:44:28.420Z,84.52
2019-03-27T04:45:28.348Z,84.87
2019-03-27T04:46:28.336Z,84.87
2019-03-27T04:47:32.380Z,84.77
2019-03-27T04:48:28.334Z,85.19
2019-03-27T04:49:28.292Z,85.08
2019-03-27T04:50:28.287Z,84.87
2019-03-27T04:51:28.271Z,84.94
2019-03-27T04:52:28.263Z,84.45
2019-03-27T04:53:28.263Z,85.08
2019-03-27T04:54:28.245Z,84.98
2019-03-27T04:55:28.223Z,84.56
2019-03-27T04:56:28.211Z,84.25
2019-03-27T04:57:28.207Z,84.66
2019-03-27T04:58:28.213Z,84.45
2019-03-27T04:59:28.179Z,84.66
2019-03-27T05:00:28.169Z,85.08
2019-03-27T05:01:28.166Z,84.87
2019-03-27T05:02:28.145Z,84.45
2019-03-27T05:03:28.167Z,85.02
2019-03-27T05:04:28.137Z,84.66
2019-03-27T05:05:28.135Z,83.94
2019-03-27T05:06:28.113Z,84.50
2019-03-27T05:07:28.096Z,84.91
2019-03-27T05:08:28.101Z,84.81
2019-03-27T05:09:28.093Z,85.12
2019-03-27T05:10:28.076Z,84.39
2019-03-27T05:11:28.049Z,84.60
2019-03-27T05:12:28.093Z,84.81
2019-03-27T05:13:28.036Z,84.70
2019-03-27T05:14:28.035Z,85.02
2019-03-27T05:15:28.019Z,84.81
2019-03-27T05:16:28.007Z,84.81
2019-03-27T05:17:27.987Z,85.02
2019-03-27T05:18:27.974Z,85.12
2019-03-27T05:19:27.991Z,85.22
2019-03-27T05:20:28.845Z,85.02
2019-03-27T05:21:27.971Z,85.47
2019-03-27T05:22:27.940Z,85.47
2019-03-27T05:23:27.917Z,84.53
2019-03-27T05:24:27.926Z,84.95
2019-03-27T05:25:27.903Z,84.84
2019-03-27T05:26:27.887Z,85.26
2019-03-27T05:27:27.879Z,85.26
2019-03-27T05:28:27.885Z,85.64
2019-03-27T05:29:27.885Z,84.81
2019-03-27T05:30:27.843Z,85.53
2019-03-27T05:31:27.830Z,85.33
2019-03-27T05:32:27.842Z,85.43
2019-03-27T05:33:27.809Z,84.95
2019-03-27T05:34:27.824Z,84.84
2019-03-27T05:35:27.785Z,84.50
2019-03-27T05:36:27.783Z,85.22
2019-03-27T05:37:27.764Z,85.33
2019-03-27T05:38:27.757Z,85.12
2019-03-27T05:39:27.761Z,84.81
2019-03-27T05:40:27.732Z,84.81
2019-03-27T05:41:27.725Z,84.70
2019-03-27T05:42:27.710Z,84.70
2019-03-27T05:43:27.701Z,85.22
2019-03-27T05:44:27.695Z,85.08
2019-03-27T05:45:27.696Z,85.19
2019-03-27T05:46:28.625Z,85.22
2019-03-27T05:47:27.656Z,85.19
2019-03-27T05:48:27.647Z,85.22
2019-03-27T05:49:27.635Z,86.02
2019-03-27T05:50:27.635Z,86.02
2019-03-27T05:51:27.613Z,86.37
2019-03-27T05:52:27.602Z,85.08
2019-03-27T05:53:27.593Z,84.98
2019-03-27T05:54:27.586Z,84.04
2019-03-27T05:55:27.590Z,84.66
2019-03-27T05:56:27.565Z,84.25
2019-03-27T05:57:27.549Z,84.66
2019-03-27T05:58:27.535Z,84.66
2019-03-27T05:59:27.526Z,85.08
2019-03-27T06:00:27.572Z,84.98
2019-03-27T06:01:27.513Z,84.45
2019-03-27T06:02:27.494Z,84.73
2019-03-27T06:03:27.490Z,84.94
2019-03-27T06:04:27.470Z,84.77
2019-03-27T06:05:27.483Z,84.94
2019-03-27T06:06:27.480Z,85.14
2019-03-27T06:07:27.440Z,84.94
2019-03-27T06:08:27.441Z,85.35
2019-03-27T06:09:27.452Z,85.35
2019-03-27T06:10:27.428Z,85.04
2019-03-27T06:11:27.423Z,85.00
2019-03-27T06:12:27.393Z,84.90
2019-03-27T06:13:27.382Z,84.90
2019-03-27T06:14:27.363Z,85.73
2019-03-27T06:15:27.367Z,86.46
2019-03-27T06:16:27.362Z,86.83
2019-03-27T06:17:27.346Z,86.32
2019-03-27T06:18:27.322Z,85.80
2019-03-27T06:19:27.308Z,85.06
2019-03-27T06:20:27.393Z,85.59
2019-03-27T06:21:27.331Z,85.13
2019-03-27T06:22:27.279Z,84.92
2019-03-27T06:23:27.281Z,84.61
2019-03-27T06:24:27.262Z,85.30
2019-03-27T06:25:27.279Z,84.89
2019-03-27T06:26:27.244Z,85.26
2019-03-27T06:27:27.257Z,84.64
2019-03-27T06:28:27.278Z,85.16
2019-03-27T06:29:27.201Z,84.60
2019-03-27T06:30:27.183Z,84.08
2019-03-27T06:31:27.195Z,84.29
2019-03-27T06:32:27.184Z,82.94
2019-03-27T06:33:27.163Z,83.01
2019-03-27T06:34:27.144Z,82.90
2019-03-27T06:35:27.156Z,82.97
2019-03-27T06:36:27.165Z,82.76
2019-03-27T06:37:27.112Z,82.82
2019-03-27T06:38:27.183Z,83.97
2019-03-27T06:39:27.089Z,83.55
2019-03-27T06:40:27.087Z,82.79
2019-03-27T06:41:27.090Z,82.58
2019-03-27T06:42:27.083Z,82.44
2019-03-27T06:43:27.064Z,82.34
2019-03-27T06:44:27.052Z,82.03
2019-03-27T06:45:27.029Z,81.99
2019-03-27T06:46:27.058Z,81.68
2019-03-27T06:47:27.003Z,81.54
2019-03-27T06:48:27.000Z,80.91
2019-03-27T06:49:26.988Z,81.12
2019-03-27T06:50:26.975Z,79.47
2019-03-27T06:51:39.509Z,79.63
2019-03-27T06:52:27.969Z,80.01
2019-03-27T06:53:26.944Z,79.19
2019-03-27T06:54:26.988Z,78.77
2019-03-27T06:55:26.920Z,78.56
2019-03-27T06:56:26.902Z,77.22
2019-03-27T06:57:26.967Z,76.50
2019-03-27T06:58:26.896Z,76.67
2019-03-27T06:59:26.872Z,75.43
2019-03-27T07:00:26.864Z,74.98
2019-03-27T07:01:26.860Z,75.19
2019-03-27T07:02:28.843Z,74.98
2019-03-27T07:03:26.824Z,76.81
2019-03-27T07:04:26.829Z,76.81
2019-03-27T07:05:26.802Z,75.05
2019-03-27T07:06:26.799Z,75.01
2019-03-27T07:07:26.799Z,75.43
2019-03-27T07:08:26.826Z,74.40
2019-03-27T07:09:26.762Z,72.95
2019-03-27T07:10:26.754Z,74.19
2019-03-27T07:11:26.744Z,73.88
2019-03-27T07:12:26.757Z,74.19
2019-03-27T07:13:26.764Z,73.54
2019-03-27T07:14:26.708Z,73.43
2019-03-27T07:15:26.707Z,73.12
2019-03-27T07:16:26.690Z,74.43
2019-03-27T07:17:26.684Z,72.50
2019-03-27T07:18:39.228Z,73.81
2019-03-27T07:19:27.672Z,72.27
2019-03-27T07:20:26.638Z,71.51
2019-03-27T07:21:26.640Z,72.54
2019-03-27T07:22:26.618Z,72.54
2019-03-27T07:23:26.630Z,73.23
2019-03-27T07:24:26.612Z,72.30
2019-03-27T07:25:26.612Z,70.93
2019-03-27T07:26:26.596Z,70.10
2019-03-27T07:27:26.560Z,70.18
2019-03-27T07:28:26.577Z,69.15
2019-03-27T07:29:26.557Z,68.80
2019-03-27T07:30:26.530Z,70.21
2019-03-27T07:31:26.602Z,69.49
2019-03-27T07:32:26.519Z,68.13
2019-03-27T07:33:26.502Z,68.74
2019-03-27T07:34:26.509Z,68.16
2019-03-27T07:35:26.495Z,66.89
2019-03-27T07:36:26.463Z,66.69
2019-03-27T07:37:26.456Z,66.28
2019-03-27T07:38:26.445Z,68.74
2019-03-27T07:39:26.458Z,66.86
2019-03-27T07:40:26.417Z,65.73
2019-03-27T07:41:26.440Z,66.35
2019-03-27T07:42:28.848Z,66.01
2019-03-27T07:43:26.456Z,66.42
2019-03-27T07:44:26.397Z,67.35
2019-03-27T07:45:26.391Z,65.50
2019-03-27T07:46:26.350Z,65.50
2019-03-27T07:47:26.343Z,65.39
2019-03-27T07:48:26.339Z,63.93
2019-03-27T07:49:26.341Z,65.88
2019-03-27T07:50:26.318Z,66.77
2019-03-27T07:51:26.296Z,65.03
2019-03-27T07:52:26.291Z,65.44
2019-03-27T07:53:26.282Z,64.41
2019-03-27T07:54:26.307Z,64.79
2019-03-27T07:55:26.253Z,64.17
2019-03-27T07:56:26.243Z,62.40
2019-03-27T07:57:26.247Z,60.53
2019-03-27T07:58:26.299Z,61.66
2019-03-27T07:59:26.210Z,62.37
2019-03-27T08:00:26.222Z,62.04
2019-03-27T08:01:26.220Z,61.43
2019-03-27T08:02:26.176Z,61.45
2019-03-27T08:03:26.168Z,61.01
2019-03-27T08:04:26.187Z,59.35
2019-03-27T08:05:26.141Z,59.25
2019-03-27T08:06:26.136Z,59.63
2019-03-27T08:07:27.300Z,60.55
2019-03-27T08:08:26.136Z,59.63
2019-03-27T08:09:26.150Z,59.39
2019-03-27T08:10:26.087Z,58.58
2019-03-27T08:11:26.161Z,58.58
2019-03-27T08:12:26.077Z,59.60
2019-03-27T08:13:26.059Z,59.60
2019-03-27T08:14:26.060Z,59.09
2019-03-27T08:15:26.048Z,59.16
2019-03-27T08:16:26.022Z,58.34
2019-03-27T08:17:26.015Z,59.88
2019-03-27T08:18:26.022Z,58.01
2019-03-27T08:19:25.998Z,58.62
2019-03-27T08:20:26.008Z,57.29
2019-03-27T08:21:25.969Z,56.48
2019-03-27T08:22:25.958Z,57.29
2019-03-27T08:23:25.954Z,56.15
2019-03-27T08:24:25.938Z,55.76
2019-03-27T08:25:25.963Z,57.60
2019-03-27T08:26:26.003Z,56.04
2019-03-27T08:27:25.918Z,54.21
2019-03-27T08:28:25.892Z,54.82
2019-03-27T08:29:25.913Z,57.34
2019-03-27T08:30:25.888Z,56.23
2019-03-27T08:31:25.878Z,57.34
2019-03-27T08:32:25.844Z,55.20
2019-03-27T08:33:25.833Z,54.49
2019-03-27T08:34:25.869Z,57.32
2019-03-27T08:35:25.824Z,55.26
2019-03-27T08:36:25.818Z,54.77
2019-03-27T08:37:25.791Z,55.76
2019-03-27T08:38:25.777Z,56.27
2019-03-27T08:39:25.773Z,55.79
2019-03-27T08:40:25.760Z,56.30
2019-03-27T08:41:25.769Z,55.66
2019-03-27T08:42:25.740Z,54.33
2019-03-27T08:43:25.786Z,54.61
2019-03-27T08:44:25.721Z,54.21
2019-03-27T08:45:25.709Z,54.92
2019-03-27T08:46:25.704Z,56.45
2019-03-27T08:47:25.706Z,53.27
2019-03-27T08:48:25.670Z,52.86
2019-03-27T08:49:25.684Z,52.83
2019-03-27T08:50:25.814Z,56.09
2019-03-27T08:51:25.656Z,54.57
2019-03-27T08:52:25.619Z,55.05
2019-03-27T08:53:25.608Z,54.24
2019-03-27T08:54:25.607Z,53.29
2019-03-27T08:55:25.592Z,51.77
2019-03-27T08:56:25.598Z,51.39
2019-03-27T08:57:25.574Z,51.18
2019-03-27T08:58:25.567Z,50.87
2019-03-27T08:59:25.556Z,50.75
2019-03-27T09:00:25.529Z,53.59
2019-03-27T09:01:25.544Z,50.04
2019-03-27T09:02:25.509Z,50.45
2019-03-27T09:03:25.499Z,51.56
2019-03-27T09:04:25.499Z,51.56
2019-03-27T09:05:25.488Z,49.43
2019-03-27T09:06:33.469Z,50.45
2019-03-27T09:07:26.451Z,50.65
2019-03-27T09:08:25.441Z,50.24
2019-03-27T09:09:25.428Z,49.84
2019-03-27T09:10:25.423Z,50.26
2019-03-27T09:11:25.413Z,50.47
2019-03-27T09:12:25.421Z,51.48
2019-03-27T09:13:25.469Z,50.09
2019-03-27T09:14:25.374Z,50.80
2019-03-27T09:15:25.370Z,50.59
2019-03-27T09:16:25.373Z,50.72
2019-03-27T09:17:25.368Z,51.25
2019-03-27T09:18:25.372Z,52.37
2019-03-27T09:19:35.773Z,53.22
2019-03-27T09:20:26.310Z,52.29
2019-03-27T09:21:25.297Z,52.81
2019-03-27T09:22:25.304Z,51.81
2019-03-27T09:23:25.365Z,52.62
2019-03-27T09:24:25.349Z,52.42
2019-03-27T09:25:25.259Z,54.05
2019-03-27T09:26:25.259Z,52.62
2019-03-27T09:27:25.264Z,54.08
2019-03-27T09:28:25.236Z,54.57
2019-03-27T09:29:25.238Z,53.16
2019-03-27T09:30:25.201Z,53.19
2019-03-27T09:31:25.188Z,54.11
2019-03-27T09:32:25.196Z,54.92
2019-03-27T09:33:25.172Z,54.82
2019-03-27T09:34:25.152Z,55.63
2019-03-27T09:35:25.142Z,54.72
2019-03-27T09:36:25.141Z,55.02
2019-03-27T09:37:25.151Z,54.51
2019-03-27T09:38:25.126Z,54.82
2019-03-27T09:39:25.103Z,56.04
2019-03-27T09:40:25.089Z,53.29
2019-03-27T09:41:25.073Z,54.11
2019-03-27T09:42:25.067Z,54.85
2019-03-27T09:43:25.090Z,54.23
2019-03-27T09:44:25.056Z,55.15
2019-03-27T09:45:25.037Z,55.76
2019-03-27T09:46:25.068Z,54.41
2019-03-27T09:47:25.008Z,53.31
2019-03-27T09:48:25.015Z,54.85
2019-03-27T09:49:24.994Z,54.85
2019-03-27T09:50:24.981Z,53.21
2019-03-27T09:51:24.978Z,54.23
2019-03-27T09:52:24.960Z,55.46
2019-03-27T09:53:24.978Z,55.66
2019-03-27T09:54:24.938Z,54.54
2019-03-27T09:55:24.928Z,55.05
2019-03-27T09:56:24.930Z,56.76
2019-03-27T09:57:24.897Z,54.51
2019-03-27T09:58:24.933Z,52.88
2019-03-27T09:59:24.885Z,54.41
2019-03-27T10:00:24.867Z,54.21
2019-03-27T10:01:24.867Z,55.63
2019-03-27T10:02:24.868Z,53.70
2019-03-27T10:03:24.849Z,54.61
2019-03-27T10:04:24.823Z,53.49
2019-03-27T10:05:24.807Z,53.49
2019-03-27T10:06:24.826Z,53.29
2019-03-27T10:07:24.789Z,53.49
2019-03-27T10:08:24.844Z,54.31
2019-03-27T10:09:24.762Z,53.70
2019-03-27T10:10:24.756Z,54.92
2019-03-27T10:11:24.786Z,54.21
2019-03-27T10:12:24.731Z,54.72
2019-03-27T10:13:24.724Z,55.33
2019-03-27T10:14:24.735Z,54.00
2019-03-27T10:15:24.711Z,52.47
2019-03-27T10:16:24.687Z,52.67
2019-03-27T10:17:24.679Z,52.27
2019-03-27T10:18:24.698Z,54.41
2019-03-27T10:19:24.670Z,53.31
2019-03-27T10:20:24.660Z,53.39
2019-03-27T10:21:24.631Z,54.39
2019-03-27T10:22:24.621Z,53.49
2019-03-27T10:23:24.605Z,52.37
2019-03-27T10:24:24.609Z,50.81
2019-03-27T10:25:24.576Z,52.47
2019-03-27T10:26:24.584Z,52.67
2019-03-27T10:27:24.581Z,53.29
2019-03-27T10:28:24.553Z,52.04
2019-03-27T10:29:24.580Z,51.02
2019-03-27T10:30:24.524Z,51.96
2019-03-27T10:31:24.514Z,52.34
2019-03-27T10:32:24.506Z,50.71
2019-03-27T10:33:24.511Z,52.14
2019-03-27T10:34:24.497Z,52.65
2019-03-27T10:35:24.466Z,51.12
2019-03-27T10:36:24.480Z,51.22
2019-03-27T10:37:24.443Z,52.67
2019-03-27T10:38:24.448Z,51.35
2019-03-27T10:39:24.475Z,52.04
2019-03-27T10:40:24.410Z,51.15
2019-03-27T10:41:24.414Z,50.84
2019-03-27T10:42:24.398Z,50.12
2019-03-27T10:43:24.378Z,50.74
2019-03-27T10:44:24.365Z,51.37
2019-03-27T10:45:24.382Z,51.27
2019-03-27T10:46:24.350Z,50.04
2019-03-27T10:47:24.336Z,52.09
2019-03-27T10:48:24.341Z,51.17
2019-03-27T10:49:24.311Z,51.17
2019-03-27T10:50:24.322Z,50.35
2019-03-27T10:51:24.295Z,51.17
2019-03-27T10:52:24.284Z,50.96
2019-03-27T10:53:24.274Z,51.17
2019-03-27T10:54:24.504Z,50.66
2019-03-27T10:55:24.277Z,51.27
2019-03-27T10:56:24.248Z,51.17
2019-03-27T10:57:24.228Z,52.50
2019-03-27T10:58:24.229Z,50.56
2019-03-27T10:59:24.205Z,51.07
2019-03-27T11:00:24.208Z,50.94
2019-03-27T11:01:24.182Z,51.65
2019-03-27T11:02:24.170Z,52.98
2019-03-27T11:03:24.162Z,51.15
2019-03-27T11:04:24.169Z,50.23
2019-03-27T11:05:24.174Z,51.04
2019-03-27T11:06:24.126Z,50.31
2019-03-27T11:07:24.140Z,50.02
2019-03-27T11:08:24.108Z,50.02
2019-03-27T11:09:24.200Z,50.31
2019-03-27T11:10:24.115Z,48.80
2019-03-27T11:11:24.072Z,49.41
2019-03-27T11:12:24.080Z,48.06
2019-03-27T11:13:24.051Z,50.81
2019-03-27T11:14:36.899Z,51.22
2019-03-27T11:15:25.094Z,48.26
2019-03-27T11:16:24.034Z,48.57
2019-03-27T11:17:24.053Z,49.69
2019-03-27T11:18:23.994Z,50.00
2019-03-27T11:19:23.985Z,48.90
2019-03-27T11:20:30.967Z,48.77
2019-03-27T11:21:25.003Z,48.98
2019-03-27T11:22:23.967Z,48.98
2019-03-27T11:23:23.950Z,48.16
2019-03-27T11:24:23.948Z,48.16
2019-03-27T11:25:23.922Z,48.57
2019-03-27T11:26:23.935Z,48.47
2019-03-27T11:27:23.910Z,51.12
2019-03-27T11:28:23.980Z,48.98
2019-03-27T11:29:23.876Z,49.46
2019-03-27T11:30:23.869Z,48.57
2019-03-27T11:31:23.876Z,48.67
2019-03-27T11:32:23.852Z,47.96
2019-03-27T11:33:23.832Z,47.86
2019-03-27T11:34:23.824Z,48.57
2019-03-27T11:35:23.818Z,51.32
2019-03-27T11:36:23.862Z,51.43
2019-03-27T11:37:23.793Z,48.67
2019-03-27T11:38:23.778Z,48.77
2019-03-27T11:39:24.893Z,50.20
2019-03-27T11:40:23.757Z,49.08
2019-03-27T11:41:23.774Z,49.90
2019-03-27T11:42:23.733Z,48.77
2019-03-27T11:43:23.721Z,49.08
2019-03-27T11:44:23.731Z,48.67
2019-03-27T11:45:23.722Z,47.96
2019-03-27T11:46:23.734Z,48.26
2019-03-27T11:47:23.710Z,48.36
2019-03-27T11:48:23.692Z,50.00
2019-03-27T11:49:23.653Z,48.47
2019-03-27T11:50:23.648Z,48.77
2019-03-27T11:51:23.667Z,50.31
2019-03-27T11:52:23.650Z,48.57
2019-03-27T11:53:23.613Z,49.71
2019-03-27T11:54:23.634Z,48.59
2019-03-27T11:55:23.587Z,49.82
2019-03-27T11:56:23.601Z,51.25
2019-03-27T11:57:23.563Z,50.31
2019-03-27T11:58:23.563Z,50.43
2019-03-27T11:59:23.540Z,49.69
2019-03-27T12:00:23.557Z,49.92
2019-03-27T12:01:23.538Z,48.80
2019-03-27T12:02:23.530Z,49.71
2019-03-27T12:03:23.503Z,50.02
2019-03-27T12:04:23.501Z,50.74
2019-03-27T12:05:23.495Z,51.86
2019-03-27T12:06:23.481Z,49.10
2019-03-27T12:07:23.470Z,49.92
2019-03-27T12:08:23.437Z,52.67
2019-03-27T12:09:23.442Z,52.78
2019-03-27T12:10:23.418Z,52.37
2019-03-27T12:11:23.402Z,50.00
2019-03-27T12:12:23.524Z,48.59
2019-03-27T12:13:23.444Z,50.31
2019-03-27T12:14:23.437Z,50.31
2019-03-27T12:15:23.485Z,50.92
2019-03-27T12:16:23.465Z,51.63
2019-03-27T12:17:23.401Z,51.10
2019-03-27T12:18:23.444Z,51.02
2019-03-27T12:19:23.326Z,50.99
2019-03-27T12:20:23.436Z,50.18
2019-03-27T12:21:23.290Z,49.05
2019-03-27T12:22:23.282Z,50.59
2019-03-27T12:23:23.379Z,50.15
2019-03-27T12:24:23.265Z,50.46
2019-03-27T12:25:23.246Z,50.26
2019-03-27T12:26:23.249Z,51.15
2019-03-27T12:27:23.234Z,49.90
2019-03-27T12:28:23.240Z,48.68
2019-03-27T12:29:23.203Z,48.35
2019-03-27T12:30:23.197Z,48.46
2019-03-27T12:31:23.206Z,48.05
2019-03-27T12:32:25.019Z,46.62
2019-03-27T12:33:23.238Z,45.71
2019-03-27T12:34:23.204Z,46.01
2019-03-27T12:35:23.236Z,46.62
2019-03-27T12:36:23.228Z,44.79
2019-03-27T12:37:23.195Z,46.01
2019-03-27T12:38:23.226Z,47.95
2019-03-27T12:39:23.090Z,46.60
2019-03-27T12:40:23.078Z,45.07
2019-03-27T12:41:23.066Z,47.09
2019-03-27T12:42:23.055Z,47.90
2019-03-27T12:43:23.078Z,45.56
2019-03-27T12:44:23.039Z,48.21
2019-03-27T12:45:23.018Z,47.88
2019-03-27T12:46:23.023Z,46.84
2019-03-27T12:47:22.999Z,44.91
2019-03-27T12:48:23.019Z,43.59
2019-03-27T12:49:23.001Z,43.91
2019-03-27T12:50:22.971Z,46.45
2019-03-27T12:51:22.957Z,44.14
2019-03-27T12:52:22.962Z,44.54